Flight Track Log - Related Links

Times and Time Zones

All times are in EDT time to prevent confusion due to time zone crossing. See the CPT8773 flight status page for this flight to view local times or setup timezone preferences in your user account.

Time Position Orientation Groundspeed Altitude Reporting Facility
EDT Latitude Longitude Course Direction KTS MPH feet Rate Location/Type
Wed 10:06:07 AM 42.9381 -106.5225 295° West 121 139 7,000  Level Denver Center
Wed 10:07:08 AM 42.9714 -106.5375 342° North 127 146 7,500 488 Climbing Denver Center
Wed 10:08:10 AM 43.0114 -106.5572 340° North 132 152 8,000 484 Climbing Denver Center
Wed 10:09:12 AM 43.0464 -106.5761 338° Northwest 136 157 8,500 484 Climbing Denver Center
Wed 10:10:00 AM 43.1321 -106.3520 308° West  Level FlightAware Approximate
Wed 10:10:14 AM 43.0822 -106.5942 340° North 139 160 9,000  Level Denver Center
Wed 10:11:00 AM 43.1561 -106.4017 295° West  Level FlightAware Approximate
Wed 10:11:16 AM 43.1244 -106.6142 341° North 142 163 9,500  Level Denver Center
Wed 10:12:17 AM 43.1625 -106.6289 344° North 144 166 10,000 585 Climbing Denver Center
Wed 10:13:19 AM 43.2019 -106.6511 338° Northwest 143 165 10,700 629 Climbing Denver Center
Wed 10:14:21 AM 43.2389 -106.6644 345° North 143 165 11,300 532 Climbing Denver Center
Wed 10:15:23 AM 43.2794 -106.6850 340° North 140 161 11,800 339 Climbing Denver Center
Wed 10:16:25 AM 43.3150 -106.7050 338° Northwest 144 166 12,000 97 Climbing Denver Center
Wed 10:17:27 AM 43.3467 -106.7583 309° West 159 183 12,000  Level Denver Center
Wed 10:18:29 AM 43.3697 -106.8081 303° West 161 185 12,000  Level Denver Center
Wed 10:19:31 AM 43.3986 -106.8628 306° West 160 184 12,000  Level Denver Center
Wed 10:20:33 AM 43.4211 -106.9064 305° West 160 184 12,000  Level Denver Center
Wed 10:21:35 AM 43.4469 -106.9575 305° West 162 186 12,000  Level Denver Center
Wed 10:22:37 AM 43.4792 -107.0175 307° West 162 186 12,000  Level Denver Center
Wed 10:23:39 AM 43.5058 -107.0669 307° West 162 186 12,000  Level Denver Center
Wed 10:24:41 AM 43.5325 -107.1186 305° West 164 189 12,000  Level Denver Center
Wed 10:25:43 AM 43.5586 -107.1697 305° West 164 189 12,000  Level Denver Center
Wed 10:26:45 AM 43.5856 -107.2183 307° West 162 186 12,000  Level Denver Center
Wed 10:27:47 AM 43.6117 -107.2689 306° West 161 185 12,000  Level Denver Center
Wed 10:28:50 AM 43.6425 -107.3286 306° West 160 184 12,000  Level Denver Center
Wed 10:29:52 AM 43.6683 -107.3789 305° West 160 184 12,000  Level Denver Center
Wed 10:30:54 AM 43.6939 -107.4306 304° West 162 186 12,000  Level Denver Center
Wed 10:31:56 AM 43.7206 -107.4806 306° West 162 186 12,000  Level Denver Center
Wed 10:32:58 AM 43.7469 -107.5303 306° West 161 185 12,000  Level Denver Center
Wed 10:34:00 AM 43.7728 -107.5814 305° West 161 185 12,000  Level Denver Center
Wed 10:35:02 AM 43.8042 -107.6425 305° West 162 186 12,000  Level Denver Center
Wed 10:36:12 AM 43.8300 -107.6939 305° West 162 186 12,000  Level Salt Lake Center
Wed 10:37:14 AM 43.8606 -107.7558 304° West 162 186 12,000  Level Salt Lake Center
Wed 10:38:16 AM 43.8867 -107.8072 305° West 163 188 12,000  Level Salt Lake Center
Wed 10:39:18 AM 43.9133 -107.8569 307° West 162 186 12,000  Level Salt Lake Center

Login

Don't have an account? Register now (free) for customized features, flight alerts, and more!